Terminal Aerodrome Forecast
Issued by NWS Columbia, SC

Home | Current Version | Previous Version | Text Only | Print | Product List | Glossary On
Versions: 1 2 3 4 5 6 7 8 9 10 11 12 13 14 15 16 17 18 19 20 21 22 23 24 25 26 27
000
FTUS42 KCAE 211745 CCA
TAFCAE
TAF COR
KCAE 211745Z 2118/2218 13007KT P6SM VCSH BKN040
     FM220000 VRB03KT P6SM SCT040
      TEMPO 2210/2212 5SM BR
     FM221400 23003KT P6SM BKN050=

USA.gov is the U.S. government's official web portal to all federal, state and local government web resources and services.